الصفحة الرئيسية
METAR-TAF:

METAR-TAF

مطار :

مطار معيتيقة الدولي

طرابلس, ليبيا

دائرة عرض: 32-54N, خط طول: 13-17E, ارتفاع: 11 متر

METAR: مفقودة

زمن: 00:26 (22:26 UTC)

توقعات

تاريخ ووقت الإصدار 2ساعات و 26 دقيقة قبل الساعة 20:00UTC
التوقعات صالحة من23 الساعة 21 UTC إلى 24 الساعة 06 UTC
ريح 10 عقدة من الغرب/الشمال الغربي
الرؤية: 8000 متر
غيوم مفككة على ارتفاع 2500 قدم
غيوم مفككة على ارتفاع 7000 قدم
مؤقت
من 23 الساعة 21 UTC إلى 24 الساعة 03 UTC
الرؤية: 5000 متر
غيوم قليلة على ارتفاع 2200 قدم, مزن ركامية عمودية.
غيوم مفككة على ارتفاع 2500 قدم
غيوم مفككة على ارتفاع 7000 قدم
زخات من المطر
مؤقت
من 23 الساعة 21 UTC إلى 23 الساعة 24 UTC
الرؤية: 3000 متر
غيوم قليلة على ارتفاع 2000 قدم, مزنة ركامية.
غيوم مفككة على ارتفاع 2500 قدم
غيوم مفككة على ارتفاع 7000 قدم
عاصفة رعدية, مطر, برَد صغير
أصبح
من 24 الساعة 00 UTC إلى 24 الساعة 02 UTC
ريح 12 عقدة من الشمال/الشمال الشرقي

TAF: HLLM 232000Z 2321/2406 30010KT 8000 BKN025 BKN070 TEMPO 2321/2403 5000 SHRA FEW022TCU BKN025 BKN070 TEMPO 2321/2324 3000 TSRAGS FEW020CB BKN025 BKN070 BECMG 2400/2402 02012KT

أرصاد الطقس والتوقعات من أكثر من 4000 مطار (تقارير الطقس للمطار METAR والتنبؤ بالطقس بالمطارTAF).

المحطات المتاحة هي النقط الصفراء والحمراء على الخريطة.

حرك المؤشر فوق النقطة لمعرفة اسم المحطة.

ثم انقر لمعرفة أرصاد وتوقعات الطقس.

لتغيير الخارطة: اضغط على الأزرار الخضراء مع رمز الصليب الأسود للتكبير. على الزر الأخضر مع شرطة للتصغير، أو على الأسهم الخضراء للخرائط المجاورة.


METAR-TAF: